sensor_id;sensor_type;location;lat;lon;timestamp;P1;durP1;ratioP1;P2;durP2;ratioP2
5923;SDS011;2987;50.884;14.818;2022-08-11T00:00:41;7.37;;;6.07;;
5923;SDS011;2987;50.884;14.818;2022-08-11T00:03:13;6.30;;;5.70;;
5923;SDS011;2987;50.884;14.818;2022-08-11T00:05:45;7.13;;;6.30;;
5923;SDS011;2987;50.884;14.818;2022-08-11T00:08:23;8.77;;;6.43;;
5923;SDS011;2987;50.884;14.818;2022-08-11T00:10:58;7.83;;;6.27;;
5923;SDS011;2987;50.884;14.818;2022-08-11T00:13:37;6.97;;;6.23;;
5923;SDS011;2987;50.884;14.818;2022-08-11T00:16:13;6.90;;;6.00;;
5923;SDS011;2987;50.884;14.818;2022-08-11T00:18:49;8.23;;;6.53;;
5923;SDS011;2987;50.884;14.818;2022-08-11T00:21:21;7.60;;;6.60;;
5923;SDS011;2987;50.884;14.818;2022-08-11T00:23:56;6.97;;;6.30;;
5923;SDS011;2987;50.884;14.818;2022-08-11T00:38:48;11.47;;;6.43;;
5923;SDS011;2987;50.884;14.818;2022-08-11T00:59:38;9.30;;;7.10;;
5923;SDS011;2987;50.884;14.818;2022-08-11T01:53:44;7.20;;;5.90;;
5923;SDS011;2987;50.884;14.818;2022-08-11T01:59:33;6.37;;;5.60;;
5923;SDS011;2987;50.884;14.818;2022-08-11T02:02:33;6.37;;;5.80;;
5923;SDS011;2987;50.884;14.818;2022-08-11T02:14:10;8.40;;;7.50;;
5923;SDS011;2987;50.884;14.818;2022-08-11T02:30:59;7.87;;;7.07;;
5923;SDS011;2987;50.884;14.818;2022-08-11T02:36:36;7.03;;;6.30;;
5923;SDS011;2987;50.884;14.818;2022-08-11T02:39:13;9.30;;;7.97;;
5923;SDS011;2987;50.884;14.818;2022-08-11T02:41:50;10.20;;;9.20;;
5923;SDS011;2987;50.884;14.818;2022-08-11T02:44:52;10.50;;;8.73;;
5923;SDS011;2987;50.884;14.818;2022-08-11T03:59:07;7.83;;;6.60;;
5923;SDS011;2987;50.884;14.818;2022-08-11T04:20:03;7.10;;;6.50;;
5923;SDS011;2987;50.884;14.818;2022-08-11T04:25:34;7.20;;;6.50;;
5923;SDS011;2987;50.884;14.818;2022-08-11T04:52:22;6.50;;;5.90;;
5923;SDS011;2987;50.884;14.818;2022-08-11T05:25:05;7.03;;;6.40;;
5923;SDS011;2987;50.884;14.818;2022-08-11T05:28:02;6.30;;;5.80;;
5923;SDS011;2987;50.884;14.818;2022-08-11T05:30:59;6.37;;;5.77;;
5923;SDS011;2987;50.884;14.818;2022-08-11T05:33:57;7.23;;;6.57;;
5923;SDS011;2987;50.884;14.818;2022-08-11T05:37:03;8.37;;;6.17;;
5923;SDS011;2987;50.884;14.818;2022-08-11T05:39:40;7.53;;;6.77;;
5923;SDS011;2987;50.884;14.818;2022-08-11T05:42:37;11.77;;;7.10;;
5923;SDS011;2987;50.884;14.818;2022-08-11T05:45:29;14.67;;;7.80;;
5923;SDS011;2987;50.884;14.818;2022-08-11T05:48:20;8.50;;;6.97;;
5923;SDS011;2987;50.884;14.818;2022-08-11T05:51:13;11.90;;;7.77;;
5923;SDS011;2987;50.884;14.818;2022-08-11T05:54:03;9.93;;;7.43;;
5923;SDS011;2987;50.884;14.818;2022-08-11T05:56:55;11.73;;;6.70;;
5923;SDS011;2987;50.884;14.818;2022-08-11T05:59:28;8.10;;;6.60;;
5923;SDS011;2987;50.884;14.818;2022-08-11T06:02:00;15.47;;;7.87;;
5923;SDS011;2987;50.884;14.818;2022-08-11T06:04:33;11.43;;;6.93;;
5923;SDS011;2987;50.884;14.818;2022-08-11T06:07:06;11.87;;;7.90;;
5923;SDS011;2987;50.884;14.818;2022-08-11T06:09:46;16.70;;;7.30;;
5923;SDS011;2987;50.884;14.818;2022-08-11T06:12:28;17.57;;;6.60;;
5923;SDS011;2987;50.884;14.818;2022-08-11T06:15:05;9.10;;;6.40;;
5923;SDS011;2987;50.884;14.818;2022-08-11T06:17:45;11.10;;;6.03;;
5923;SDS011;2987;50.884;14.818;2022-08-11T06:20:18;23.13;;;7.33;;
5923;SDS011;2987;50.884;14.818;2022-08-11T06:22:54;7.20;;;6.03;;
5923;SDS011;2987;50.884;14.818;2022-08-11T06:25:33;12.40;;;6.60;;
5923;SDS011;2987;50.884;14.818;2022-08-11T06:28:06;15.23;;;6.00;;
5923;SDS011;2987;50.884;14.818;2022-08-11T06:30:37;16.77;;;6.40;;
5923;SDS011;2987;50.884;14.818;2022-08-11T06:33:10;10.83;;;6.40;;
5923;SDS011;2987;50.884;14.818;2022-08-11T06:36:02;15.73;;;6.63;;
5923;SDS011;2987;50.884;14.818;2022-08-11T06:38:56;12.73;;;5.87;;
5923;SDS011;2987;50.884;14.818;2022-08-11T06:44:22;11.20;;;5.40;;
5923;SDS011;2987;50.884;14.818;2022-08-11T06:47:14;15.60;;;5.73;;
5923;SDS011;2987;50.884;14.818;2022-08-11T06:52:40;11.60;;;5.40;;
5923;SDS011;2987;50.884;14.818;2022-08-11T06:55:14;18.47;;;5.00;;
5923;SDS011;2987;50.884;14.818;2022-08-11T06:58:20;13.23;;;4.87;;
5923;SDS011;2987;50.884;14.818;2022-08-11T07:01:40;7.90;;;3.63;;
5923;SDS011;2987;50.884;14.818;2022-08-11T07:10:26;7.40;;;3.93;;
5923;SDS011;2987;50.884;14.818;2022-08-11T07:26:21;13.53;;;3.90;;
5923;SDS011;2987;50.884;14.818;2022-08-11T07:41:27;13.07;;;3.97;;
5923;SDS011;2987;50.884;14.818;2022-08-11T07:56:16;13.20;;;3.77;;
5923;SDS011;2987;50.884;14.818;2022-08-11T07:58:45;15.27;;;3.50;;
5923;SDS011;2987;50.884;14.818;2022-08-11T08:01:37;15.07;;;3.53;;
5923;SDS011;2987;50.884;14.818;2022-08-11T08:04:25;16.70;;;3.40;;
5923;SDS011;2987;50.884;14.818;2022-08-11T08:07:14;13.00;;;3.17;;
5923;SDS011;2987;50.884;14.818;2022-08-11T08:10:07;9.80;;;3.20;;
5923;SDS011;2987;50.884;14.818;2022-08-11T08:12:56;12.17;;;3.60;;
5923;SDS011;2987;50.884;14.818;2022-08-11T08:15:44;12.47;;;3.53;;
5923;SDS011;2987;50.884;14.818;2022-08-11T08:18:39;5.97;;;2.57;;
5923;SDS011;2987;50.884;14.818;2022-08-11T08:21:08;11.17;;;3.13;;
5923;SDS011;2987;50.884;14.818;2022-08-11T08:23:43;12.43;;;3.10;;
5923;SDS011;2987;50.884;14.818;2022-08-11T08:26:14;12.67;;;3.23;;
5923;SDS011;2987;50.884;14.818;2022-08-11T08:29:05;4.60;;;2.27;;
5923;SDS011;2987;50.884;14.818;2022-08-11T08:31:55;9.17;;;2.10;;
5923;SDS011;2987;50.884;14.818;2022-08-11T08:34:25;6.90;;;2.00;;
5923;SDS011;2987;50.884;14.818;2022-08-11T08:36:56;4.90;;;1.90;;
5923;SDS011;2987;50.884;14.818;2022-08-11T08:39:37;5.33;;;2.00;;
5923;SDS011;2987;50.884;14.818;2022-08-11T08:42:09;9.97;;;2.17;;
5923;SDS011;2987;50.884;14.818;2022-08-11T08:44:57;9.40;;;2.37;;
5923;SDS011;2987;50.884;14.818;2022-08-11T08:47:34;7.23;;;2.17;;
5923;SDS011;2987;50.884;14.818;2022-08-11T08:50:09;9.00;;;2.23;;
5923;SDS011;2987;50.884;14.818;2022-08-11T08:52:42;8.20;;;1.80;;
5923;SDS011;2987;50.884;14.818;2022-08-11T08:55:16;5.07;;;1.67;;
5923;SDS011;2987;50.884;14.818;2022-08-11T08:57:49;8.97;;;1.80;;
5923;SDS011;2987;50.884;14.818;2022-08-11T09:00:28;4.20;;;1.50;;
5923;SDS011;2987;50.884;14.818;2022-08-11T09:03:09;7.07;;;1.70;;
5923;SDS011;2987;50.884;14.818;2022-08-11T09:05:41;5.60;;;1.67;;
5923;SDS011;2987;50.884;14.818;2022-08-11T09:08:14;3.83;;;1.40;;
5923;SDS011;2987;50.884;14.818;2022-08-11T09:10:47;4.53;;;1.47;;
5923;SDS011;2987;50.884;14.818;2022-08-11T09:13:40;10.37;;;1.70;;
5923;SDS011;2987;50.884;14.818;2022-08-11T09:16:09;11.20;;;1.70;;
5923;SDS011;2987;50.884;14.818;2022-08-11T09:18:38;8.50;;;1.50;;
5923;SDS011;2987;50.884;14.818;2022-08-11T09:21:11;6.20;;;1.67;;
5923;SDS011;2987;50.884;14.818;2022-08-11T09:23:44;13.97;;;1.97;;
5923;SDS011;2987;50.884;14.818;2022-08-11T09:27:03;10.60;;;1.83;;
5923;SDS011;2987;50.884;14.818;2022-08-11T09:29:35;5.27;;;1.40;;
5923;SDS011;2987;50.884;14.818;2022-08-11T09:32:06;14.87;;;1.93;;
5923;SDS011;2987;50.884;14.818;2022-08-11T09:34:36;8.60;;;1.70;;
5923;SDS011;2987;50.884;14.818;2022-08-11T09:37:08;4.60;;;1.57;;
5923;SDS011;2987;50.884;14.818;2022-08-11T09:40:03;3.30;;;1.40;;
5923;SDS011;2987;50.884;14.818;2022-08-11T10:19:34;3.67;;;1.30;;
5923;SDS011;2987;50.884;14.818;2022-08-11T10:22:05;2.33;;;1.70;;
5923;SDS011;2987;50.884;14.818;2022-08-11T10:24:56;9.57;;;1.90;;
5923;SDS011;2987;50.884;14.818;2022-08-11T10:28:06;2.63;;;1.30;;
5923;SDS011;2987;50.884;14.818;2022-08-11T10:30:35;4.00;;;1.40;;
5923;SDS011;2987;50.884;14.818;2022-08-11T10:33:24;2.77;;;1.33;;
5923;SDS011;2987;50.884;14.818;2022-08-11T11:13:10;6.53;;;1.50;;
5923;SDS011;2987;50.884;14.818;2022-08-11T11:15:59;2.53;;;1.63;;
5923;SDS011;2987;50.884;14.818;2022-08-11T11:18:47;4.10;;;1.60;;
5923;SDS011;2987;50.884;14.818;2022-08-11T11:21:18;2.27;;;1.43;;
5923;SDS011;2987;50.884;14.818;2022-08-11T11:24:11;8.50;;;1.63;;
5923;SDS011;2987;50.884;14.818;2022-08-11T11:26:59;7.40;;;1.90;;
5923;SDS011;2987;50.884;14.818;2022-08-11T11:32:42;3.97;;;1.23;;
5923;SDS011;2987;50.884;14.818;2022-08-11T11:43:52;2.60;;;1.60;;
5923;SDS011;2987;50.884;14.818;2022-08-11T11:46:27;4.00;;;1.53;;
5923;SDS011;2987;50.884;14.818;2022-08-11T11:48:57;9.77;;;1.57;;
5923;SDS011;2987;50.884;14.818;2022-08-11T11:51:28;4.60;;;1.60;;
5923;SDS011;2987;50.884;14.818;2022-08-11T11:53:59;3.40;;;1.50;;
5923;SDS011;2987;50.884;14.818;2022-08-11T11:56:32;4.00;;;1.70;;
5923;SDS011;2987;50.884;14.818;2022-08-11T11:59:02;8.60;;;1.90;;
5923;SDS011;2987;50.884;14.818;2022-08-11T12:01:53;2.50;;;1.40;;
5923;SDS011;2987;50.884;14.818;2022-08-11T12:04:23;2.13;;;1.60;;
5923;SDS011;2987;50.884;14.818;2022-08-11T12:07:00;5.77;;;1.77;;
5923;SDS011;2987;50.884;14.818;2022-08-11T12:09:49;2.73;;;1.20;;
5923;SDS011;2987;50.884;14.818;2022-08-11T12:12:21;4.67;;;1.70;;
5923;SDS011;2987;50.884;14.818;2022-08-11T12:15:10;6.27;;;1.80;;
5923;SDS011;2987;50.884;14.818;2022-08-11T12:17:39;8.73;;;2.53;;
5923;SDS011;2987;50.884;14.818;2022-08-11T12:20:15;8.33;;;4.30;;
5923;SDS011;2987;50.884;14.818;2022-08-11T12:22:46;3.57;;;2.60;;
5923;SDS011;2987;50.884;14.818;2022-08-11T12:25:36;4.03;;;1.70;;
5923;SDS011;2987;50.884;14.818;2022-08-11T12:28:49;3.90;;;1.57;;
5923;SDS011;2987;50.884;14.818;2022-08-11T12:31:19;9.17;;;1.70;;
5923;SDS011;2987;50.884;14.818;2022-08-11T12:33:50;6.53;;;1.53;;
5923;SDS011;2987;50.884;14.818;2022-08-11T12:36:20;8.13;;;1.63;;
5923;SDS011;2987;50.884;14.818;2022-08-11T12:38:50;2.23;;;1.40;;
